sensor_id;sensor_type;location;lat;lon;timestamp;temperature;humidity
49861;DHT22;35761;48.826;9.238;2022-07-30T00:01:18;19.70;60.00
49861;DHT22;35761;48.826;9.238;2022-07-30T00:03:47;19.70;59.80
49861;DHT22;35761;48.826;9.238;2022-07-30T00:06:17;19.70;60.70
49861;DHT22;35761;48.826;9.238;2022-07-30T00:08:46;19.60;60.10
49861;DHT22;35761;48.826;9.238;2022-07-30T00:11:15;19.60;60.50
49861;DHT22;35761;48.826;9.238;2022-07-30T00:13:44;19.40;63.20
49861;DHT22;35761;48.826;9.238;2022-07-30T00:16:12;19.30;66.00
49861;DHT22;35761;48.826;9.238;2022-07-30T00:18:41;19.20;65.10
49861;DHT22;35761;48.826;9.238;2022-07-30T00:21:09;19.10;65.70
49861;DHT22;35761;48.826;9.238;2022-07-30T00:23:46;19.10;66.20
49861;DHT22;35761;48.826;9.238;2022-07-30T00:26:29;19.10;66.30
49861;DHT22;35761;48.826;9.238;2022-07-30T00:28:58;19.10;66.00
49861;DHT22;35761;48.826;9.238;2022-07-30T00:31:28;19.10;66.00
49861;DHT22;35761;48.826;9.238;2022-07-30T00:33:56;19.10;64.50
49861;DHT22;35761;48.826;9.238;2022-07-30T00:36:25;19.00;62.70
49861;DHT22;35761;48.826;9.238;2022-07-30T00:38:54;19.00;61.80
49861;DHT22;35761;48.826;9.238;2022-07-30T00:41:22;19.10;61.20
49861;DHT22;35761;48.826;9.238;2022-07-30T00:43:53;19.00;60.40
49861;DHT22;35761;48.826;9.238;2022-07-30T00:46:22;19.00;59.80
49861;DHT22;35761;48.826;9.238;2022-07-30T00:48:50;19.00;59.10
49861;DHT22;35761;48.826;9.238;2022-07-30T00:51:19;19.00;58.50
49861;DHT22;35761;48.826;9.238;2022-07-30T00:53:47;19.00;57.80
49861;DHT22;35761;48.826;9.238;2022-07-30T00:56:16;19.00;57.40
49861;DHT22;35761;48.826;9.238;2022-07-30T00:58:45;18.90;56.90
49861;DHT22;35761;48.826;9.238;2022-07-30T01:01:15;19.00;56.70
49861;DHT22;35761;48.826;9.238;2022-07-30T01:03:44;19.00;56.20
49861;DHT22;35761;48.826;9.238;2022-07-30T01:06:12;19.00;56.00
49861;DHT22;35761;48.826;9.238;2022-07-30T01:08:41;19.00;55.70
49861;DHT22;35761;48.826;9.238;2022-07-30T01:11:10;19.00;55.10
49861;DHT22;35761;48.826;9.238;2022-07-30T01:13:41;19.10;54.90
49861;DHT22;35761;48.826;9.238;2022-07-30T01:16:10;19.00;54.10
49861;DHT22;35761;48.826;9.238;2022-07-30T01:18:41;19.00;54.90
49861;DHT22;35761;48.826;9.238;2022-07-30T01:21:33;19.00;53.70
49861;DHT22;35761;48.826;9.238;2022-07-30T01:24:13;19.00;53.50
49861;DHT22;35761;48.826;9.238;2022-07-30T01:26:51;19.00;53.70
49861;DHT22;35761;48.826;9.238;2022-07-30T01:29:20;19.00;53.80
49861;DHT22;35761;48.826;9.238;2022-07-30T01:31:51;19.10;53.70
49861;DHT22;35761;48.826;9.238;2022-07-30T01:34:23;19.00;53.50
49861;DHT22;35761;48.826;9.238;2022-07-30T01:36:52;19.00;52.40
49861;DHT22;35761;48.826;9.238;2022-07-30T01:39:21;19.00;52.40
49861;DHT22;35761;48.826;9.238;2022-07-30T01:41:52;19.00;52.30
49861;DHT22;35761;48.826;9.238;2022-07-30T01:44:22;19.00;53.20
49861;DHT22;35761;48.826;9.238;2022-07-30T01:46:54;19.00;53.60
49861;DHT22;35761;48.826;9.238;2022-07-30T01:49:25;18.90;52.60
49861;DHT22;35761;48.826;9.238;2022-07-30T01:51:56;19.00;52.80
49861;DHT22;35761;48.826;9.238;2022-07-30T01:54:27;19.00;53.30
49861;DHT22;35761;48.826;9.238;2022-07-30T01:56:58;18.90;53.60
49861;DHT22;35761;48.826;9.238;2022-07-30T01:59:31;18.90;54.10
49861;DHT22;35761;48.826;9.238;2022-07-30T02:02:01;18.90;53.50
49861;DHT22;35761;48.826;9.238;2022-07-30T02:04:32;18.90;53.60
49861;DHT22;35761;48.826;9.238;2022-07-30T02:07:03;18.80;53.20
49861;DHT22;35761;48.826;9.238;2022-07-30T02:09:42;18.70;54.30
49861;DHT22;35761;48.826;9.238;2022-07-30T02:12:16;18.70;54.10
49861;DHT22;35761;48.826;9.238;2022-07-30T02:15:10;18.70;53.90
49861;DHT22;35761;48.826;9.238;2022-07-30T02:17:49;18.70;53.90
49861;DHT22;35761;48.826;9.238;2022-07-30T02:20:26;18.70;53.50
49861;DHT22;35761;48.826;9.238;2022-07-30T02:23:00;18.70;52.10
49861;DHT22;35761;48.826;9.238;2022-07-30T02:25:34;18.70;51.50
49861;DHT22;35761;48.826;9.238;2022-07-30T02:28:10;18.60;51.20
49861;DHT22;35761;48.826;9.238;2022-07-30T02:30:46;18.50;51.10
49861;DHT22;35761;48.826;9.238;2022-07-30T02:33:21;18.40;51.20
49861;DHT22;35761;48.826;9.238;2022-07-30T02:35:53;18.40;51.10
49861;DHT22;35761;48.826;9.238;2022-07-30T02:38:23;18.40;52.00
49861;DHT22;35761;48.826;9.238;2022-07-30T02:40:56;18.40;51.40
49861;DHT22;35761;48.826;9.238;2022-07-30T02:43:28;18.30;51.90
49861;DHT22;35761;48.826;9.238;2022-07-30T02:46:04;18.30;52.10
49861;DHT22;35761;48.826;9.238;2022-07-30T02:48:54;18.30;52.00
49861;DHT22;35761;48.826;9.238;2022-07-30T02:51:24;18.30;51.50
49861;DHT22;35761;48.826;9.238;2022-07-30T02:53:56;18.30;51.80
49861;DHT22;35761;48.826;9.238;2022-07-30T02:56:27;18.20;52.30
49861;DHT22;35761;48.826;9.238;2022-07-30T02:59:00;18.20;52.20
49861;DHT22;35761;48.826;9.238;2022-07-30T03:01:30;18.30;52.10
49861;DHT22;35761;48.826;9.238;2022-07-30T03:04:01;18.20;52.50
49861;DHT22;35761;48.826;9.238;2022-07-30T03:06:30;18.20;53.00
49861;DHT22;35761;48.826;9.238;2022-07-30T03:09:01;18.20;54.10
49861;DHT22;35761;48.826;9.238;2022-07-30T03:11:30;18.20;54.20
49861;DHT22;35761;48.826;9.238;2022-07-30T03:14:02;18.20;55.10
49861;DHT22;35761;48.826;9.238;2022-07-30T03:16:36;18.10;55.20
49861;DHT22;35761;48.826;9.238;2022-07-30T03:19:09;18.10;54.70
49861;DHT22;35761;48.826;9.238;2022-07-30T03:21:40;18.10;55.00
49861;DHT22;35761;48.826;9.238;2022-07-30T03:24:11;18.00;54.40
49861;DHT22;35761;48.826;9.238;2022-07-30T03:26:41;18.00;53.60
49861;DHT22;35761;48.826;9.238;2022-07-30T03:29:13;18.10;54.50
49861;DHT22;35761;48.826;9.238;2022-07-30T03:31:48;18.00;53.80
49861;DHT22;35761;48.826;9.238;2022-07-30T03:34:19;18.00;50.40
49861;DHT22;35761;48.826;9.238;2022-07-30T03:36:50;17.90;50.90
49861;DHT22;35761;48.826;9.238;2022-07-30T03:39:19;17.90;51.00
49861;DHT22;35761;48.826;9.238;2022-07-30T03:41:50;17.90;49.80
49861;DHT22;35761;48.826;9.238;2022-07-30T03:44:22;17.90;49.80
49861;DHT22;35761;48.826;9.238;2022-07-30T03:46:52;17.90;49.80
49861;DHT22;35761;48.826;9.238;2022-07-30T03:49:22;17.90;49.40
49861;DHT22;35761;48.826;9.238;2022-07-30T03:51:52;17.90;49.10
49861;DHT22;35761;48.826;9.238;2022-07-30T03:54:23;17.90;48.40
49861;DHT22;35761;48.826;9.238;2022-07-30T03:57:18;17.90;48.50
49861;DHT22;35761;48.826;9.238;2022-07-30T03:59:49;17.90;48.20
49861;DHT22;35761;48.826;9.238;2022-07-30T04:02:20;17.90;47.80
49861;DHT22;35761;48.826;9.238;2022-07-30T04:05:18;17.90;47.90
49861;DHT22;35761;48.826;9.238;2022-07-30T04:07:48;17.90;47.60
49861;DHT22;35761;48.826;9.238;2022-07-30T04:10:19;17.90;47.50
49861;DHT22;35761;48.826;9.238;2022-07-30T04:12:56;17.90;47.70
49861;DHT22;35761;48.826;9.238;2022-07-30T04:15:30;17.90;47.40
49861;DHT22;35761;48.826;9.238;2022-07-30T04:18:20;17.80;47.20
49861;DHT22;35761;48.826;9.238;2022-07-30T04:20:51;17.80;47.50
49861;DHT22;35761;48.826;9.238;2022-07-30T04:23:21;17.80;47.70
49861;DHT22;35761;48.826;9.238;2022-07-30T04:25:50;17.80;47.40
49861;DHT22;35761;48.826;9.238;2022-07-30T04:28:19;17.80;47.30
49861;DHT22;35761;48.826;9.238;2022-07-30T04:30:49;17.80;47.30
49861;DHT22;35761;48.826;9.238;2022-07-30T04:33:18;17.80;47.10
49861;DHT22;35761;48.826;9.238;2022-07-30T04:36:13;17.80;47.50
49861;DHT22;35761;48.826;9.238;2022-07-30T04:38:42;17.80;47.40
49861;DHT22;35761;48.826;9.238;2022-07-30T04:41:11;17.80;47.40
49861;DHT22;35761;48.826;9.238;2022-07-30T04:43:58;17.80;47.80
49861;DHT22;35761;48.826;9.238;2022-07-30T04:46:30;17.80;47.90
49861;DHT22;35761;48.826;9.238;2022-07-30T04:48:58;17.80;48.10
49861;DHT22;35761;48.826;9.238;2022-07-30T04:51:32;17.70;47.90
49861;DHT22;35761;48.826;9.238;2022-07-30T04:54:04;17.70;47.70
49861;DHT22;35761;48.826;9.238;2022-07-30T04:56:42;17.70;47.90
49861;DHT22;35761;48.826;9.238;2022-07-30T04:59:23;17.70;48.30
49861;DHT22;35761;48.826;9.238;2022-07-30T05:01:56;17.70;48.00
49861;DHT22;35761;48.826;9.238;2022-07-30T05:04:27;17.70;48.10
49861;DHT22;35761;48.826;9.238;2022-07-30T05:06:56;17.70;48.50
49861;DHT22;35761;48.826;9.238;2022-07-30T05:09:27;17.70;48.90
49861;DHT22;35761;48.826;9.238;2022-07-30T05:11:57;17.80;49.50
49861;DHT22;35761;48.826;9.238;2022-07-30T05:14:27;17.80;49.90
49861;DHT22;35761;48.826;9.238;2022-07-30T05:16:57;17.80;50.00
49861;DHT22;35761;48.826;9.238;2022-07-30T05:19:27;17.80;50.70
49861;DHT22;35761;48.826;9.238;2022-07-30T05:21:56;17.80;50.40
49861;DHT22;35761;48.826;9.238;2022-07-30T05:24:31;17.80;50.00
49861;DHT22;35761;48.826;9.238;2022-07-30T05:27:00;17.80;50.80
49861;DHT22;35761;48.826;9.238;2022-07-30T05:29:29;17.90;48.30
49861;DHT22;35761;48.826;9.238;2022-07-30T05:32:10;17.90;48.70
49861;DHT22;35761;48.826;9.238;2022-07-30T05:34:38;18.00;49.00
49861;DHT22;35761;48.826;9.238;2022-07-30T05:37:07;17.90;48.60
49861;DHT22;35761;48.826;9.238;2022-07-30T05:39:38;18.00;48.20
49861;DHT22;35761;48.826;9.238;2022-07-30T05:42:43;18.00;47.70
49861;DHT22;35761;48.826;9.238;2022-07-30T05:45:12;18.00;47.90
49861;DHT22;35761;48.826;9.238;2022-07-30T05:47:42;18.00;47.60
49861;DHT22;35761;48.826;9.238;2022-07-30T05:50:11;18.00;48.20
49861;DHT22;35761;48.826;9.238;2022-07-30T05:52:40;18.10;48.70
49861;DHT22;35761;48.826;9.238;2022-07-30T05:55:31;18.10;48.20
49861;DHT22;35761;48.826;9.238;2022-07-30T05:58:37;18.10;47.60
49861;DHT22;35761;48.826;9.238;2022-07-30T06:01:05;18.20;46.00
49861;DHT22;35761;48.826;9.238;2022-07-30T06:03:36;18.20;46.00
49861;DHT22;35761;48.826;9.238;2022-07-30T06:06:36;18.30;46.20
49861;DHT22;35761;48.826;9.238;2022-07-30T06:09:05;18.40;46.50
49861;DHT22;35761;48.826;9.238;2022-07-30T06:11:34;18.40;45.60
49861;DHT22;35761;48.826;9.238;2022-07-30T06:14:02;18.50;44.70
49861;DHT22;35761;48.826;9.238;2022-07-30T06:16:31;18.50;44.90
49861;DHT22;35761;48.826;9.238;2022-07-30T06:19:01;18.50;45.40
49861;DHT22;35761;48.826;9.238;2022-07-30T06:21:39;18.60;45.60
49861;DHT22;35761;48.826;9.238;2022-07-30T06:24:28;18.50;45.60
49861;DHT22;35761;48.826;9.238;2022-07-30T06:27:08;18.50;47.00
49861;DHT22;35761;48.826;9.238;2022-07-30T06:29:37;18.60;44.90
49861;DHT22;35761;48.826;9.238;2022-07-30T06:32:07;18.70;44.20
49861;DHT22;35761;48.826;9.238;2022-07-30T06:34:37;18.70;43.90
49861;DHT22;35761;48.826;9.238;2022-07-30T06:37:05;18.80;43.20
49861;DHT22;35761;48.826;9.238;2022-07-30T06:39:34;18.80;43.40
49861;DHT22;35761;48.826;9.238;2022-07-30T06:42:26;18.90;42.30
49861;DHT22;35761;48.826;9.238;2022-07-30T06:45:19;19.00;41.60
49861;DHT22;35761;48.826;9.238;2022-07-30T06:48:08;19.10;41.60
49861;DHT22;35761;48.826;9.238;2022-07-30T06:50:38;19.10;41.00
49861;DHT22;35761;48.826;9.238;2022-07-30T06:53:07;19.20;40.20
49861;DHT22;35761;48.826;9.238;2022-07-30T06:55:55;19.30;39.30
49861;DHT22;35761;48.826;9.238;2022-07-30T06:58:32;19.30;39.60
49861;DHT22;35761;48.826;9.238;2022-07-30T07:01:19;19.20;39.60
49861;DHT22;35761;48.826;9.238;2022-07-30T07:03:49;19.40;39.20
49861;DHT22;35761;48.826;9.238;2022-07-30T07:06:19;19.40;38.90
49861;DHT22;35761;48.826;9.238;2022-07-30T07:08:48;19.50;38.80
49861;DHT22;35761;48.826;9.238;2022-07-30T07:11:22;19.60;38.70
49861;DHT22;35761;48.826;9.238;2022-07-30T07:13:54;19.60;38.50
49861;DHT22;35761;48.826;9.238;2022-07-30T07:16:34;19.60;38.70
49861;DHT22;35761;48.826;9.238;2022-07-30T07:19:22;19.70;38.10
49861;DHT22;35761;48.826;9.238;2022-07-30T07:22:12;19.70;38.30
49861;DHT22;35761;48.826;9.238;2022-07-30T07:24:43;19.70;38.60
49861;DHT22;35761;48.826;9.238;2022-07-30T07:27:16;19.80;38.70
49861;DHT22;35761;48.826;9.238;2022-07-30T07:29:47;19.80;38.70
49861;DHT22;35761;48.826;9.238;2022-07-30T07:32:33;19.90;38.50
49861;DHT22;35761;48.826;9.238;2022-07-30T07:35:04;19.90;38.70
49861;DHT22;35761;48.826;9.238;2022-07-30T07:37:38;19.90;39.20
49861;DHT22;35761;48.826;9.238;2022-07-30T07:40:11;20.00;38.30
49861;DHT22;35761;48.826;9.238;2022-07-30T07:42:41;20.10;37.60
49861;DHT22;35761;48.826;9.238;2022-07-30T07:45:10;20.20;37.50
49861;DHT22;35761;48.826;9.238;2022-07-30T07:47:49;20.20;36.90
49861;DHT22;35761;48.826;9.238;2022-07-30T07:50:45;20.20;36.60
49861;DHT22;35761;48.826;9.238;2022-07-30T07:53:23;20.20;36.50
49861;DHT22;35761;48.826;9.238;2022-07-30T07:55:52;20.20;37.10
49861;DHT22;35761;48.826;9.238;2022-07-30T07:58:23;20.20;36.50
49861;DHT22;35761;48.826;9.238;2022-07-30T08:00:56;20.30;35.90
49861;DHT22;35761;48.826;9.238;2022-07-30T08:03:45;20.30;36.10
49861;DHT22;35761;48.826;9.238;2022-07-30T08:06:34;20.30;36.10
49861;DHT22;35761;48.826;9.238;2022-07-30T08:09:23;20.40;35.50
49861;DHT22;35761;48.826;9.238;2022-07-30T08:12:18;20.50;35.70
49861;DHT22;35761;48.826;9.238;2022-07-30T08:15:06;20.60;34.80
49861;DHT22;35761;48.826;9.238;2022-07-30T08:17:39;20.60;34.50
49861;DHT22;35761;48.826;9.238;2022-07-30T08:20:15;20.60;35.30
49861;DHT22;35761;48.826;9.238;2022-07-30T08:22:43;20.60;35.80
49861;DHT22;35761;48.826;9.238;2022-07-30T08:25:13;20.70;34.80
49861;DHT22;35761;48.826;9.238;2022-07-30T08:27:52;20.70;34.70
49861;DHT22;35761;48.826;9.238;2022-07-30T08:30:22;20.70;35.40
49861;DHT22;35761;48.826;9.238;2022-07-30T08:32:50;20.80;34.10
49861;DHT22;35761;48.826;9.238;2022-07-30T08:35:20;20.80;33.90
49861;DHT22;35761;48.826;9.238;2022-07-30T08:37:50;20.80;34.40
49861;DHT22;35761;48.826;9.238;2022-07-30T08:40:24;20.90;34.10
49861;DHT22;35761;48.826;9.238;2022-07-30T08:43:04;21.00;34.20
49861;DHT22;35761;48.826;9.238;2022-07-30T08:45:34;21.00;34.80
49861;DHT22;35761;48.826;9.238;2022-07-30T08:48:19;21.10;33.40
49861;DHT22;35761;48.826;9.238;2022-07-30T08:50:50;21.10;33.50
49861;DHT22;35761;48.826;9.238;2022-07-30T08:53:45;21.20;32.60
49861;DHT22;35761;48.826;9.238;2022-07-30T08:56:16;21.20;33.20
49861;DHT22;35761;48.826;9.238;2022-07-30T08:58:46;21.10;32.60
49861;DHT22;35761;48.826;9.238;2022-07-30T09:01:16;21.30;31.20
49861;DHT22;35761;48.826;9.238;2022-07-30T09:03:44;21.40;30.70
49861;DHT22;35761;48.826;9.238;2022-07-30T09:06:14;21.40;31.40
49861;DHT22;35761;48.826;9.238;2022-07-30T09:08:43;21.40;30.80
49861;DHT22;35761;48.826;9.238;2022-07-30T09:11:12;21.50;29.70
49861;DHT22;35761;48.826;9.238;2022-07-30T09:13:42;21.70;30.50
49861;DHT22;35761;48.826;9.238;2022-07-30T09:16:21;21.70;30.60
49861;DHT22;35761;48.826;9.238;2022-07-30T09:18:53;21.60;31.10
49861;DHT22;35761;48.826;9.238;2022-07-30T09:21:24;21.60;30.70
49861;DHT22;35761;48.826;9.238;2022-07-30T09:24:18;21.80;30.20
49861;DHT22;35761;48.826;9.238;2022-07-30T09:27:43;21.80;31.00
49861;DHT22;35761;48.826;9.238;2022-07-30T09:30:45;22.00;28.50
49861;DHT22;35761;48.826;9.238;2022-07-30T09:33:37;22.10;28.00
49861;DHT22;35761;48.826;9.238;2022-07-30T09:36:45;22.10;28.20
49861;DHT22;35761;48.826;9.238;2022-07-30T09:39:27;22.10;27.70
49861;DHT22;35761;48.826;9.238;2022-07-30T09:42:20;22.20;27.80
49861;DHT22;35761;48.826;9.238;2022-07-30T09:45:04;22.20;29.20
49861;DHT22;35761;48.826;9.238;2022-07-30T09:47:36;22.30;29.00
49861;DHT22;35761;48.826;9.238;2022-07-30T09:50:07;22.30;28.00
49861;DHT22;35761;48.826;9.238;2022-07-30T09:52:39;22.40;27.10
49861;DHT22;35761;48.826;9.238;2022-07-30T09:55:29;22.30;27.60
49861;DHT22;35761;48.826;9.238;2022-07-30T09:58:01;22.50;27.40
49861;DHT22;35761;48.826;9.238;2022-07-30T10:00:33;22.60;26.50
49861;DHT22;35761;48.826;9.238;2022-07-30T10:03:17;22.60;25.90
49861;DHT22;35761;48.826;9.238;2022-07-30T10:06:31;22.70;25.00
49861;DHT22;35761;48.826;9.238;2022-07-30T10:09:05;22.60;25.40
49861;DHT22;35761;48.826;9.238;2022-07-30T10:11:46;22.50;24.90
49861;DHT22;35761;48.826;9.238;2022-07-30T10:14:14;22.60;25.90
49861;DHT22;35761;48.826;9.238;2022-07-30T10:16:57;22.70;26.30
49861;DHT22;35761;48.826;9.238;2022-07-30T10:19:32;22.80;26.10
49861;DHT22;35761;48.826;9.238;2022-07-30T10:22:13;22.90;26.20
49861;DHT22;35761;48.826;9.238;2022-07-30T10:24:46;23.00;24.60
49861;DHT22;35761;48.826;9.238;2022-07-30T10:27:34;22.90;25.90
49861;DHT22;35761;48.826;9.238;2022-07-30T10:30:20;23.10;25.40
49861;DHT22;35761;48.826;9.238;2022-07-30T10:32:56;23.20;25.40
49861;DHT22;35761;48.826;9.238;2022-07-30T10:35:28;23.30;25.40
49861;DHT22;35761;48.826;9.238;2022-07-30T10:38:08;23.40;25.20
49861;DHT22;35761;48.826;9.238;2022-07-30T10:40:45;23.40;24.00
49861;DHT22;35761;48.826;9.238;2022-07-30T10:46:45;23.40;24.70
49861;DHT22;35761;48.826;9.238;2022-07-30T10:49:18;23.20;26.30
49861;DHT22;35761;48.826;9.238;2022-07-30T10:51:50;23.30;24.80
49861;DHT22;35761;48.826;9.238;2022-07-30T10:54:43;23.40;24.60
49861;DHT22;35761;48.826;9.238;2022-07-30T10:57:15;23.40;24.30
49861;DHT22;35761;48.826;9.238;2022-07-30T11:00:12;23.60;23.70
49861;DHT22;35761;48.826;9.238;2022-07-30T11:06:24;23.60;23.50
49861;DHT22;35761;48.826;9.238;2022-07-30T11:08:55;23.90;25.00
49861;DHT22;35761;48.826;9.238;2022-07-30T11:11:44;24.00;24.80
49861;DHT22;35761;48.826;9.238;2022-07-30T11:14:56;23.90;24.60
49861;DHT22;35761;48.826;9.238;2022-07-30T11:17:56;23.80;24.60
49861;DHT22;35761;48.826;9.238;2022-07-30T11:20:27;23.90;24.00
49861;DHT22;35761;48.826;9.238;2022-07-30T11:23:08;24.00;24.10
49861;DHT22;35761;48.826;9.238;2022-07-30T11:25:41;24.10;23.00
49861;DHT22;35761;48.826;9.238;2022-07-30T11:28:42;24.10;22.40
49861;DHT22;35761;48.826;9.238;2022-07-30T11:31:32;24.10;22.00
49861;DHT22;35761;48.826;9.238;2022-07-30T11:34:28;24.10;22.50
49861;DHT22;35761;48.826;9.238;2022-07-30T11:37:05;24.10;23.00
49861;DHT22;35761;48.826;9.238;2022-07-30T11:40:10;24.10;22.80
49861;DHT22;35761;48.826;9.238;2022-07-30T11:42:41;24.10;23.10
49861;DHT22;35761;48.826;9.238;2022-07-30T11:45:24;24.20;22.10
49861;DHT22;35761;48.826;9.238;2022-07-30T11:47:58;24.10;22.30
49861;DHT22;35761;48.826;9.238;2022-07-30T11:50:29;24.10;21.90
49861;DHT22;35761;48.826;9.238;2022-07-30T11:53:00;24.30;21.20
49861;DHT22;35761;48.826;9.238;2022-07-30T11:55:31;24.40;20.80
49861;DHT22;35761;48.826;9.238;2022-07-30T11:58:05;24.40;20.50
49861;DHT22;35761;48.826;9.238;2022-07-30T12:00:36;24.30;20.70
49861;DHT22;35761;48.826;9.238;2022-07-30T12:03:10;24.30;20.40
49861;DHT22;35761;48.826;9.238;2022-07-30T12:05:39;24.40;20.50
49861;DHT22;35761;48.826;9.238;2022-07-30T12:08:09;24.40;21.10
49861;DHT22;35761;48.826;9.238;2022-07-30T12:10:59;24.60;20.30
49861;DHT22;35761;48.826;9.238;2022-07-30T12:13:29;24.60;19.80
49861;DHT22;35761;48.826;9.238;2022-07-30T12:16:15;24.70;20.20
49861;DHT22;35761;48.826;9.238;2022-07-30T12:18:44;24.70;20.90
49861;DHT22;35761;48.826;9.238;2022-07-30T12:21:13;25.20;21.90
49861;DHT22;35761;48.826;9.238;2022-07-30T12:23:52;25.30;22.40
49861;DHT22;35761;48.826;9.238;2022-07-30T13:44:27;29.00;16.20
49861;DHT22;35761;48.826;9.238;2022-07-30T13:46:56;29.90;14.60
49861;DHT22;35761;48.826;9.238;2022-07-30T13:49:28;30.10;14.40
49861;DHT22;35761;48.826;9.238;2022-07-30T13:51:56;29.80;14.50
49861;DHT22;35761;48.826;9.238;2022-07-30T13:54:25;29.60;14.50
49861;DHT22;35761;48.826;9.238;2022-07-30T13:56:55;29.40;14.60
49861;DHT22;35761;48.826;9.238;2022-07-30T13:59:23;29.20;14.90
49861;DHT22;35761;48.826;9.238;2022-07-30T14:01:54;29.20;15.00
49861;DHT22;35761;48.826;9.238;2022-07-30T14:04:23;29.20;15.40
49861;DHT22;35761;48.826;9.238;2022-07-30T14:06:51;29.20;15.30
49861;DHT22;35761;48.826;9.238;2022-07-30T14:09:20;29.30;15.00
49861;DHT22;35761;48.826;9.238;2022-07-30T14:11:48;29.40;14.50
49861;DHT22;35761;48.826;9.238;2022-07-30T14:14:16;29.50;15.10
49861;DHT22;35761;48.826;9.238;2022-07-30T14:16:45;29.70;14.60
49861;DHT22;35761;48.826;9.238;2022-07-30T14:19:20;29.70;14.70
49861;DHT22;35761;48.826;9.238;2022-07-30T14:21:51;29.90;14.30
49861;DHT22;35761;48.826;9.238;2022-07-30T14:24:20;29.80;14.60
49861;DHT22;35761;48.826;9.238;2022-07-30T14:26:49;29.90;14.60
49861;DHT22;35761;48.826;9.238;2022-07-30T14:29:24;30.00;15.20
49861;DHT22;35761;48.826;9.238;2022-07-30T14:31:53;30.30;14.80
49861;DHT22;35761;48.826;9.238;2022-07-30T14:34:23;30.50;14.30
49861;DHT22;35761;48.826;9.238;2022-07-30T14:36:51;30.60;14.40
49861;DHT22;35761;48.826;9.238;2022-07-30T14:39:19;30.70;14.00
49861;DHT22;35761;48.826;9.238;2022-07-30T14:41:48;30.70;13.40
49861;DHT22;35761;48.826;9.238;2022-07-30T14:44:22;30.70;13.70
49861;DHT22;35761;48.826;9.238;2022-07-30T14:46:51;30.80;14.30
49861;DHT22;35761;48.826;9.238;2022-07-30T14:49:20;30.80;13.30
49861;DHT22;35761;48.826;9.238;2022-07-30T14:51:51;31.00;13.40
49861;DHT22;35761;48.826;9.238;2022-07-30T14:54:20;30.90;12.90
49861;DHT22;35761;48.826;9.238;2022-07-30T14:56:49;30.80;13.20
49861;DHT22;35761;48.826;9.238;2022-07-30T14:59:24;30.70;13.40
49861;DHT22;35761;48.826;9.238;2022-07-30T15:01:54;30.80;13.70
49861;DHT22;35761;48.826;9.238;2022-07-30T15:04:22;30.90;13.50
49861;DHT22;35761;48.826;9.238;2022-07-30T15:06:52;30.90;12.80
49861;DHT22;35761;48.826;9.238;2022-07-30T15:09:21;30.90;12.60
49861;DHT22;35761;48.826;9.238;2022-07-30T15:11:49;30.90;13.10
49861;DHT22;35761;48.826;9.238;2022-07-30T15:14:36;31.10;14.00
49861;DHT22;35761;48.826;9.238;2022-07-30T15:17:06;31.20;12.80
49861;DHT22;35761;48.826;9.238;2022-07-30T15:19:34;31.10;12.50
49861;DHT22;35761;48.826;9.238;2022-07-30T15:22:17;31.10;12.80
49861;DHT22;35761;48.826;9.238;2022-07-30T15:24:45;31.20;13.10
49861;DHT22;35761;48.826;9.238;2022-07-30T15:27:14;31.20;12.50
49861;DHT22;35761;48.826;9.238;2022-07-30T15:29:43;31.30;12.80
49861;DHT22;35761;48.826;9.238;2022-07-30T15:32:11;31.50;12.40
49861;DHT22;35761;48.826;9.238;2022-07-30T15:34:39;31.40;12.00
49861;DHT22;35761;48.826;9.238;2022-07-30T15:37:08;31.40;12.30
49861;DHT22;35761;48.826;9.238;2022-07-30T15:39:38;31.60;12.30
49861;DHT22;35761;48.826;9.238;2022-07-30T15:42:06;31.60;12.20
49861;DHT22;35761;48.826;9.238;2022-07-30T15:44:35;31.60;12.30
49861;DHT22;35761;48.826;9.238;2022-07-30T15:47:14;31.60;12.00
49861;DHT22;35761;48.826;9.238;2022-07-30T15:49:42;31.50;12.20
49861;DHT22;35761;48.826;9.238;2022-07-30T15:52:11;31.50;13.40
49861;DHT22;35761;48.826;9.238;2022-07-30T15:54:41;31.60;12.30
49861;DHT22;35761;48.826;9.238;2022-07-30T15:57:09;31.50;12.30
49861;DHT22;35761;48.826;9.238;2022-07-30T15:59:38;31.40;12.40
49861;DHT22;35761;48.826;9.238;2022-07-30T16:02:07;31.20;13.00
49861;DHT22;35761;48.826;9.238;2022-07-30T16:04:36;31.00;12.90
49861;DHT22;35761;48.826;9.238;2022-07-30T16:07:07;30.70;12.80
49861;DHT22;35761;48.826;9.238;2022-07-30T16:09:35;30.80;13.00
49861;DHT22;35761;48.826;9.238;2022-07-30T16:12:05;30.70;12.60
49861;DHT22;35761;48.826;9.238;2022-07-30T16:14:34;30.40;13.30
49861;DHT22;35761;48.826;9.238;2022-07-30T16:17:03;30.60;13.30
49861;DHT22;35761;48.826;9.238;2022-07-30T16:19:39;30.70;12.90
49861;DHT22;35761;48.826;9.238;2022-07-30T16:22:11;30.80;12.70
49861;DHT22;35761;48.826;9.238;2022-07-30T16:24:49;30.80;12.60
49861;DHT22;35761;48.826;9.238;2022-07-30T16:27:19;30.80;12.40
49861;DHT22;35761;48.826;9.238;2022-07-30T16:29:48;30.90;12.70
49861;DHT22;35761;48.826;9.238;2022-07-30T16:32:16;30.90;13.20
49861;DHT22;35761;48.826;9.238;2022-07-30T16:34:45;31.20;13.90
49861;DHT22;35761;48.826;9.238;2022-07-30T16:37:13;31.30;13.40
49861;DHT22;35761;48.826;9.238;2022-07-30T16:39:41;31.50;13.40
49861;DHT22;35761;48.826;9.238;2022-07-30T16:42:10;31.60;13.50
49861;DHT22;35761;48.826;9.238;2022-07-30T16:44:40;31.60;12.70
49861;DHT22;35761;48.826;9.238;2022-07-30T16:47:08;31.50;13.50
49861;DHT22;35761;48.826;9.238;2022-07-30T16:49:40;31.50;13.60
49861;DHT22;35761;48.826;9.238;2022-07-30T16:52:08;31.50;13.70
49861;DHT22;35761;48.826;9.238;2022-07-30T16:54:36;31.30;13.00
49861;DHT22;35761;48.826;9.238;2022-07-30T16:57:05;31.10;13.80
49861;DHT22;35761;48.826;9.238;2022-07-30T16:59:36;31.10;13.60
49861;DHT22;35761;48.826;9.238;2022-07-30T17:02:11;30.90;13.30
49861;DHT22;35761;48.826;9.238;2022-07-30T17:04:39;31.00;13.90
49861;DHT22;35761;48.826;9.238;2022-07-30T17:07:08;31.10;13.60
49861;DHT22;35761;48.826;9.238;2022-07-30T17:09:36;31.00;13.10
49861;DHT22;35761;48.826;9.238;2022-07-30T17:12:06;30.80;12.80
49861;DHT22;35761;48.826;9.238;2022-07-30T17:14:38;30.80;12.80
49861;DHT22;35761;48.826;9.238;2022-07-30T17:17:07;30.70;13.20
49861;DHT22;35761;48.826;9.238;2022-07-30T17:19:41;30.70;13.10
49861;DHT22;35761;48.826;9.238;2022-07-30T17:22:10;30.80;13.70
49861;DHT22;35761;48.826;9.238;2022-07-30T17:24:39;30.80;12.60
49861;DHT22;35761;48.826;9.238;2022-07-30T17:27:07;30.80;13.70
49861;DHT22;35761;48.826;9.238;2022-07-30T17:29:36;30.80;13.30
49861;DHT22;35761;48.826;9.238;2022-07-30T17:32:17;30.70;13.50
49861;DHT22;35761;48.826;9.238;2022-07-30T17:34:47;30.70;14.30
49861;DHT22;35761;48.826;9.238;2022-07-30T17:37:16;30.40;13.10
49861;DHT22;35761;48.826;9.238;2022-07-30T17:39:45;30.30;12.80